• Join FlightAware (Why Join?)
  • Login
  • US Flag 
11:29AM EDT


 

Airport Tracker/Info


-or-


 

Live Flight TrackerFlight Track Log ✈ JBU1483 ✈ 2014년 Feb 12일 ✈ KEWR - KPBI

Flight Track Log - Related Links

Times and Time Zones

All times are in EST time to prevent confusion due to time zone crossing. See the JBU1483 flight status page for this flight to view local times or setup timezone preferences in your user account.

Time Position Orientation Groundspeed Altitude Reporting Facility
EST Latitude Longitude Course Direction KTS MPH feet Rate Location/Type
07:51PM 28.7952 -78.4807 185° South  Level FlightAware Approximate
07:52PM 28.6898 -78.4911 185° South  Level FlightAware Approximate
07:53PM 28.5844 -78.5015 185° South  Level FlightAware Approximate
07:54PM 28.4790 -78.5119 185° South  Level FlightAware Approximate
07:55PM 28.3736 -78.5223 185° South  Level FlightAware Approximate
07:56PM 28.2683 -78.5327 185° South  Level FlightAware Approximate
07:57PM 28.1629 -78.5430 185° South  Level FlightAware Approximate
07:58PM 28.0575 -78.5533 185° South  Level FlightAware Approximate
07:59PM 27.9521 -78.5636 185° South  Level FlightAware Approximate
08:00PM 27.8468 -78.5739 185° South  Level FlightAware Approximate
08:01PM 27.7414 -78.5840 184° South  Level FlightAware Approximate
08:02PM 27.6359 -78.5925 184° South  Level FlightAware Approximate
08:03PM 27.5303 -78.6009 184° South  Level FlightAware Approximate
08:04PM 27.4248 -78.6094 184° South  Level FlightAware Approximate
08:05PM 27.3193 -78.6176 183° South  Level FlightAware Approximate
08:06PM 27.2137 -78.6242 183° South  Level FlightAware Approximate
08:07PM 27.1081 -78.6308 183° South  Level FlightAware Approximate
08:08PM 27.0055 -78.6500 180° South  Level FlightAware Approximate
08:09PM 26.8999 -78.6545 183° South  Level FlightAware Approximate
08:10PM 26.7943 -78.6615 183° South  Level FlightAware Approximate
08:11PM 26.6898 -78.6756 197° South  Level FlightAware Approximate
08:12PM 26.5851 -78.6833 180° South  Level FlightAware Approximate
08:13PM 26.5654 -78.7605 283° West  Level FlightAware Approximate
08:14PM 26.6044 -78.8704 292° West  Level FlightAware Approximate
08:15PM 26.6434 -78.9803 290° West  Level FlightAware Approximate
08:16PM 26.6804 -79.0912 291° West  Level FlightAware Approximate
08:17PM 26.7174 -79.2021 290° West  Level FlightAware Approximate
08:18PM 26.7544 -79.3131 291° West  Level FlightAware Approximate
08:19PM 26.7833 -79.4257 270° West  Level FlightAware Approximate
08:20PM 26.8238 -79.5345 294° West  Level FlightAware Approximate
08:21PM 26.8354 -79.6438 250° West  Level FlightAware Approximate
08:22PM 26.7912 -79.7513 247° West  Level FlightAware Approximate
08:23PM 26.7554 -79.8615 246° West  Level FlightAware Approximate
08:24PM 26.7122 -79.9696 246° West  Level FlightAware Approximate
08:25PM 26.6689 -80.0777 246° West  Level FlightAware Approximate
08:26PM 26.6667 -80.0833 246° West  Level FlightAware Approximate
08:27PM 26.6832 -80.0956 246° West  Level Estimated
08:28PM 26.6832 -80.0956 246° West  Level Estimated
08:29PM 26.6832 -80.0956 246° West  Level Estimated
08:30PM 26.6832 -80.0956 246° West  Level Estimated
08:31PM 26.6832 -80.0956 246° West  Level Estimated
08:32PM 26.6832 -80.0956 246° West  Level Estimated
08:33PM 26.6832 -80.0956 246° West  Level Estimated
08:34PM 26.6832 -80.0956 246° West  Level Estimated
08:35PM 26.6832 -80.0956 246° West  Level Estimated
08:36PM 26.6832 -80.0956 246° West  Level Estimated
08:37PM 26.6832 -80.0956 246° West  Level Estimated
08:38PM 26.6832 -80.0956 246° West  Level Estimated
08:39PM 26.6832 -80.0956 246° West  Level Estimated
08:40PM 26.6832 -80.0956 246° West  Level Estimated
08:41PM 26.6832 -80.0956 246° West  Level Estimated